• Join FlightAware (Why Join?)
  • Login
  • US Flag 
10:49PM EST


 

Airport Tracker/Info


-or-


 

Live Flight TrackerFlight Track Log ✈ RAX44 ✈ 26-Apr-2013 ✈ KSPA - KPTK

Flight Track Log - Related Links

Times and Time Zones

All times are in EDT time to prevent confusion due to time zone crossing. See the RAX44 flight status page for this flight to view local times or setup timezone preferences in your user account.

Time Position Orientation Groundspeed Altitude Reporting Facility
EDT Latitude Longitude Course Direction KTS MPH feet Rate Location/Type
03:28PM 34.9031 -81.9189 360° North 234 269 5,700  Level Atlanta Center
03:29PM 34.9678 -81.9325 350° North 268 308 8,200 2,580 Climbing Atlanta Center
03:30PM 35.0411 -81.9383 356° North 275 316 10,900 2,280 Climbing Atlanta Center
03:31PM 35.1244 -81.9336 North 282 325 12,800 2,100 Climbing Atlanta Center
03:32PM 35.3598 -81.9333 North  Level FlightAware Approximate
03:32PM 35.2122 -81.9442 354° North 303 349 15,200  Level Atlanta Center
03:33PM 35.4552 -81.9333 360° North  Level FlightAware Approximate
03:33PM 35.3039 -81.9442 360° North 321 369 17,300  Level Atlanta Center
03:34PM 35.4064 -81.9469 359° North 328 377 19,000 1,800 Climbing Atlanta Center
03:35PM 35.5044 -81.9469 360° North 339 390 20,900 1,860 Climbing Atlanta Center
03:36PM 35.6064 -81.9442 North 351 404 22,800 1,980 Climbing Atlanta Center
03:37PM 35.7067 -81.9494 358° North 357 411 24,900 1,860 Climbing Atlanta Center
03:38PM 35.8089 -81.9519 359° North 363 418 26,600 1,500 Climbing Atlanta Center
03:39PM 35.9153 -81.9467 North 377 434 28,000 1,200 Climbing Atlanta Center
03:40PM 36.0236 -81.9411 North 384 442 29,000 480 Climbing Atlanta Center
03:41PM 36.1219 -81.9542 354° North 384 442 29,000 600 Level Atlanta Center
03:42PM 36.2408 -81.9508 North 402 463 30,300 1,680 Climbing Atlanta Center
03:43PM 36.3575 -81.9481 North 402 463 32,400 1,980 Climbing Atlanta Center
03:44PM 36.4639 -81.9503 359° North 392 451 34,300 1,740 Climbing Atlanta Center
03:45PM 36.5642 -81.9581 356° North 369 425 35,900 1,380 Climbing Atlanta Center
03:47PM 36.7561 -81.9639 359° North 349 402 38,600 1,020 Climbing Indianapolis Center
03:48PM 36.8561 -81.9708 357° North 355 409 39,200 540 Climbing Indianapolis Center
03:49PM 36.9714 -81.9789 357° North 356 410 39,800 360 Climbing Indianapolis Center
03:50PM 37.0753 -81.9783 360° North 370 426 40,000 60 Climbing Indianapolis Center
03:51PM 37.1811 -81.9825 358° North 379 436 40,000  Level Indianapolis Center
03:52PM 37.2906 -81.9908 357° North 391 450 40,000  Level Indianapolis Center
03:53PM 37.4011 -81.9936 359° North 396 456 40,000  Level Indianapolis Center
03:54PM 37.5300 -81.9969 359° North 396 456 40,000  Level Indianapolis Center
03:55PM 37.6406 -82.0067 356° North 395 455 40,000  Level Indianapolis Center
03:56PM 37.7517 -82.0131 357° North 398 458 40,000  Level Indianapolis Center
03:57PM 37.8525 -82.0083 North 400 460 40,000  Level Indianapolis Center
03:58PM 37.9858 -82.0044 North 399 459 40,000  Level Indianapolis Center
03:59PM 38.0950 -82.0050 360° North 391 450 40,000  Level Indianapolis Center
04:00PM 38.2031 -82.0042 360° North 390 449 40,000  Level Indianapolis Center
04:01PM 38.3122 -81.9864 North 394 453 40,000  Level Indianapolis Center
04:02PM 38.4189 -81.9994 355° North 384 442 40,000  Level Indianapolis Center
04:03PM 38.5256 -82.0156 353° North 381 438 40,000 -60 Level Indianapolis Center
04:04PM 38.6333 -82.0250 356° North 385 443 39,900  Descending Indianapolis Center
04:05PM 38.7647 -82.0325 357° North 389 448 40,000  Climbing Indianapolis Center
04:06PM 38.8717 -82.0433 355° North 384 442 40,000  Level Indianapolis Center
04:07PM 38.9789 -82.0567 354° North 384 442 40,000  Level Indianapolis Center
04:08PM 39.0881 -82.0594 359° North 388 447 40,000  Level Indianapolis Center
04:09PM 39.1964 -82.0625 359° North 388 447 40,000  Level Indianapolis Center
04:10PM 39.3050 -82.0714 356° North 390 449 40,000 -300 Level Indianapolis Center
04:11PM 39.4153 -82.0756 358° North 394 453 39,500 -600 Descending Indianapolis Center
04:13PM 39.5297 -82.0767 360° North 406 467 38,800 -660 Descending Indianapolis Center
04:14PM 39.6636 -82.0822 358° North 400 460 38,200 -1,020 Descending Indianapolis Center
04:15PM 39.7683 -82.0814 360° North 399 459 36,700 -1,560 Descending Indianapolis Center
04:16PM 39.8772 -82.0706 North 388 447 35,000 -1,260 Descending Indianapolis Center
04:17PM 39.9881 -82.0656 North 396 456 34,200 -540 Descending Indianapolis Center
04:18PM 40.1222 -82.0697 359° North 408 470 34,000 -420 Descending Indianapolis Center
04:19PM 40.2392 -82.0728 359° North 416 479 33,400 -1,260 Descending Indianapolis Center
04:20PM 40.3525 -82.0744 359° North 408 470 31,500 -1,860 Descending Indianapolis Center
04:20PM 40.3950 -82.0769 357° North 401 461 30,900 -1,140 Descending Cleveland Center
04:21PM 40.5033 -82.0878 356° North 401 461 30,000 -480 Descending Cleveland Center
04:22PM 40.6136 -82.0903 359° North 396 456 30,000 -360 Level Cleveland Center
04:23PM 40.7283 -82.0928 359° North 402 463 29,300 -960 Descending Cleveland Center
04:24PM 40.8389 -82.0981 358° North 402 463 28,100 -1,200 Descending Cleveland Center
04:25PM 40.9492 -82.1089 356° North 402 463 27,000 -1,200 Descending Cleveland Center
04:26PM 41.0594 -82.1197 356° North 397 457 25,700 -1,200 Descending Cleveland Center
04:27PM 41.1575 -82.1275 357° North 397 457 24,600 -1,200 Descending Cleveland Center
04:28PM 41.2617 -82.1300 359° North 387 445 23,400 -1,500 Descending Cleveland Center
04:29PM 41.3700 -82.1353 358° North 382 440 21,600 -1,740 Descending Cleveland Center
04:30PM 41.4711 -82.2014 334° Northwest 369 425 20,000 -1,320 Descending Cleveland Center
04:31PM 41.5469 -82.2867 320° Northwest 358 412 19,000 -1,140 Descending Cleveland Center
04:32PM 41.5942 -82.3322 324° Northwest 356 410 18,200 -1,200 Descending Cleveland Center
04:32PM 41.6314 -82.3639 328° Northwest 358 412 17,800 -1,020 Descending Cleveland Center
04:33PM 41.6683 -82.3956 327° Northwest 358 412 17,400 -1,440 Descending Cleveland Center
04:33PM 41.7094 -82.4356 324° Northwest 352 405 16,400 -2,760 Descending Cleveland Center
04:34PM 41.7464 -82.4672 327° Northwest 337 388 14,600 -3,540 Descending Cleveland Center
04:34PM 41.7811 -82.5044 321° Northwest 339 390 12,900 -3,540 Descending Cleveland Center
04:34PM 41.8100 -82.5306 326° Northwest 309 356 11,400 -2,940 Descending Cleveland Center
04:35PM 41.8531 -82.5681 327° Northwest 321 369 10,000 -1,380 Descending Cleveland Center
04:35PM 41.8839 -82.5969 325° Northwest 313 360 10,000 -120 Level Cleveland Center
04:36PM 41.9294 -82.6178 341° North 310 357 9,900 -120 Descending Cleveland Center
04:36PM 41.9647 -82.6217 355° North 268 308 9,900 -540 Level Cleveland Center
04:37PM 42.0022 -82.6286 352° North 284 327 9,400 -1,020 Descending Cleveland Center
04:38PM 42.0353 -82.6408 345° North 258 297 8,900 -900 Descending Cleveland Center
04:38PM 42.0683 -82.6614 335° Northwest 265 305 8,500 -1,020 Descending Cleveland Center
04:39PM 42.0992 -82.6764 340° North 258 297 7,900 -1,140 Descending Cleveland Center
04:39PM 42.1344 -82.6972 336° Northwest 260 299 7,400 -1,080 Descending Cleveland Center
04:39PM 42.1611 -82.7147 334° Northwest 260 299 6,900 -1,320 Descending Cleveland Center
04:40PM 42.2022 -82.7386 337° Northwest 260 299 6,100 -1,320 Descending Cleveland Center
04:40PM 42.2292 -82.7508 341° North 264 304 5,600 -1,200 Descending Cleveland Center
04:41PM 42.2728 -82.7664 345° North 260 299 4,900 -1,200 Descending Cleveland Center
04:42PM 42.3075 -82.7956 328° Northwest 270 311 4,300 -600 Descending Cleveland Center
04:43PM 42.3692 -82.8483 328° Northwest 266 306 4,000 -240 Descending Cleveland Center
04:44PM 42.4306 -82.9039 326° Northwest 269 310 3,900 -60 Descending Cleveland Center
04:45PM 42.5061 -82.9744 325° Northwest 269 310 3,900  Level Cleveland Center
04:46PM 42.5736 -83.0361 326° Northwest 247 284 3,900 -360 Level Cleveland Center
04:47PM 42.6181 -83.1028 312° West 243 280 3,200 -540 Descending Cleveland Center
04:48PM 42.6519 -83.1747 303° West 246 283 2,900 -240 Descending Cleveland Center
04:49PM 42.6625 -83.2569 280° West 223 257 2,800 -300 Descending Cleveland Center
04:50PM 42.6672 -83.3278 275° West 171 197 2,300 -660 Descending Cleveland Center
04:51PM 42.6656 -83.3900 268° West 145 167 1,400 -840 Descending Cleveland Center